sensor_id;sensor_type;location;lat;lon;timestamp;P1;durP1;ratioP1;P2;durP2;ratioP2
12888;SDS011;56848;49.896;11.424;2023-02-22T05:02:51;5.90;;;3.15;;
12888;SDS011;56848;49.896;11.424;2023-02-22T05:05:17;9.10;;;3.40;;
12888;SDS011;56848;49.896;11.424;2023-02-22T05:07:45;16.60;;;4.10;;
12888;SDS011;56848;49.896;11.424;2023-02-22T05:10:12;16.83;;;4.88;;
12888;SDS011;56848;49.896;11.424;2023-02-22T05:12:38;13.00;;;3.25;;
12888;SDS011;56848;49.896;11.424;2023-02-22T05:15:04;10.80;;;3.97;;
12888;SDS011;56848;49.896;11.424;2023-02-22T05:17:31;18.58;;;4.40;;
12888;SDS011;56848;49.896;11.424;2023-02-22T05:19:56;36.90;;;4.70;;
12888;SDS011;56848;49.896;11.424;2023-02-22T05:22:22;47.50;;;5.03;;
12888;SDS011;56848;49.896;11.424;2023-02-22T05:24:48;23.43;;;4.23;;
12888;SDS011;56848;49.896;11.424;2023-02-22T05:27:16;33.55;;;4.93;;
12888;SDS011;56848;49.896;11.424;2023-02-22T05:29:42;13.13;;;3.63;;
12888;SDS011;56848;49.896;11.424;2023-02-22T05:32:07;32.50;;;4.50;;
12888;SDS011;56848;49.896;11.424;2023-02-22T05:34:33;100.13;;;5.57;;
12888;SDS011;56848;49.896;11.424;2023-02-22T05:36:59;59.67;;;4.70;;
12888;SDS011;56848;49.896;11.424;2023-02-22T05:39:24;73.93;;;6.03;;
12888;SDS011;56848;49.896;11.424;2023-02-22T05:41:50;56.33;;;6.53;;
12888;SDS011;56848;49.896;11.424;2023-02-22T05:44:15;85.10;;;7.90;;
12888;SDS011;56848;49.896;11.424;2023-02-22T05:46:41;40.83;;;6.40;;
12888;SDS011;56848;49.896;11.424;2023-02-22T05:49:07;52.33;;;4.60;;
12888;SDS011;56848;49.896;11.424;2023-02-22T05:51:32;81.73;;;6.03;;
12888;SDS011;56848;49.896;11.424;2023-02-22T05:53:58;72.27;;;5.20;;
12888;SDS011;56848;49.896;11.424;2023-02-22T05:56:24;7.70;;;4.00;;
12888;SDS011;56848;49.896;11.424;2023-02-22T05:58:51;16.58;;;3.67;;
12888;SDS011;56848;49.896;11.424;2023-02-22T06:01:17;17.42;;;4.30;;
12888;SDS011;56848;49.896;11.424;2023-02-22T06:03:47;26.33;;;5.07;;
12888;SDS011;56848;49.896;11.424;2023-02-22T06:06:13;6.93;;;4.20;;
12888;SDS011;56848;49.896;11.424;2023-02-22T06:08:39;46.92;;;4.70;;
12888;SDS011;56848;49.896;11.424;2023-02-22T06:11:05;62.53;;;5.17;;
12888;SDS011;56848;49.896;11.424;2023-02-22T06:13:30;58.33;;;4.70;;
12888;SDS011;56848;49.896;11.424;2023-02-22T06:15:57;50.67;;;5.72;;
12888;SDS011;56848;49.896;11.424;2023-02-22T06:18:23;96.60;;;6.78;;
12888;SDS011;56848;49.896;11.424;2023-02-22T06:20:50;68.93;;;6.55;;
12888;SDS011;56848;49.896;11.424;2023-02-22T06:23:16;9.87;;;3.73;;
12888;SDS011;56848;49.896;11.424;2023-02-22T06:25:42;220.43;;;8.77;;
12888;SDS011;56848;49.896;11.424;2023-02-22T06:28:07;53.13;;;5.63;;
12888;SDS011;56848;49.896;11.424;2023-02-22T06:30:33;66.47;;;5.07;;
12888;SDS011;56848;49.896;11.424;2023-02-22T06:32:58;40.17;;;4.43;;
12888;SDS011;56848;49.896;11.424;2023-02-22T06:35:24;58.33;;;7.10;;
12888;SDS011;56848;49.896;11.424;2023-02-22T06:37:50;29.47;;;5.90;;
12888;SDS011;56848;49.896;11.424;2023-02-22T06:40:15;33.97;;;5.50;;
12888;SDS011;56848;49.896;11.424;2023-02-22T06:42:41;41.13;;;5.03;;
12888;SDS011;56848;49.896;11.424;2023-02-22T06:45:07;50.00;;;6.30;;
12888;SDS011;56848;49.896;11.424;2023-02-22T06:47:36;28.63;;;5.28;;
12888;SDS011;56848;49.896;11.424;2023-02-22T06:50:03;28.98;;;5.40;;
12888;SDS011;56848;49.896;11.424;2023-02-22T06:52:29;28.10;;;4.97;;
12888;SDS011;56848;49.896;11.424;2023-02-22T06:54:54;35.80;;;4.67;;
12888;SDS011;56848;49.896;11.424;2023-02-22T06:57:20;16.93;;;4.30;;
12888;SDS011;56848;49.896;11.424;2023-02-22T06:59:46;23.73;;;4.80;;
12888;SDS011;56848;49.896;11.424;2023-02-22T07:02:11;42.67;;;5.20;;
12888;SDS011;56848;49.896;11.424;2023-02-22T07:04:37;171.27;;;16.33;;
12888;SDS011;56848;49.896;11.424;2023-02-22T07:07:03;58.38;;;11.25;;
12888;SDS011;56848;49.896;11.424;2023-02-22T07:09:29;48.57;;;9.97;;
12888;SDS011;56848;49.896;11.424;2023-02-22T07:11:55;27.73;;;8.60;;
12888;SDS011;56848;49.896;11.424;2023-02-22T07:14:20;49.80;;;8.23;;
12888;SDS011;56848;49.896;11.424;2023-02-22T07:16:46;80.33;;;9.40;;
12888;SDS011;56848;49.896;11.424;2023-02-22T07:19:12;70.57;;;7.93;;
12888;SDS011;56848;49.896;11.424;2023-02-22T07:21:37;188.97;;;9.70;;
12888;SDS011;56848;49.896;11.424;2023-02-22T07:24:03;210.87;;;10.57;;
12888;SDS011;56848;49.896;11.424;2023-02-22T07:26:29;251.87;;;11.03;;
12888;SDS011;56848;49.896;11.424;2023-02-22T07:28:54;138.23;;;9.20;;
12888;SDS011;56848;49.896;11.424;2023-02-22T07:31:20;53.13;;;8.97;;
12888;SDS011;56848;49.896;11.424;2023-02-22T07:33:46;14.83;;;5.80;;
12888;SDS011;56848;49.896;11.424;2023-02-22T07:36:12;33.30;;;6.63;;
12888;SDS011;56848;49.896;11.424;2023-02-22T07:38:41;26.70;;;6.33;;
12888;SDS011;56848;49.896;11.424;2023-02-22T07:41:10;59.15;;;6.70;;
12888;SDS011;56848;49.896;11.424;2023-02-22T07:43:36;18.98;;;6.65;;
12888;SDS011;56848;49.896;11.424;2023-02-22T07:46:02;42.00;;;7.57;;
12888;SDS011;56848;49.896;11.424;2023-02-22T07:48:28;29.98;;;6.68;;
12888;SDS011;56848;49.896;11.424;2023-02-22T07:50:55;33.13;;;7.50;;
12888;SDS011;56848;49.896;11.424;2023-02-22T07:53:29;41.35;;;7.63;;
12888;SDS011;56848;49.896;11.424;2023-02-22T07:55:58;12.70;;;6.80;;
12888;SDS011;56848;49.896;11.424;2023-02-22T07:58:26;12.93;;;6.60;;
12888;SDS011;56848;49.896;11.424;2023-02-22T08:00:53;14.23;;;6.40;;
12888;SDS011;56848;49.896;11.424;2023-02-22T08:03:19;9.27;;;6.40;;
12888;SDS011;56848;49.896;11.424;2023-02-22T08:05:48;18.87;;;5.93;;
12888;SDS011;56848;49.896;11.424;2023-02-22T08:08:21;9.53;;;6.70;;
12888;SDS011;56848;49.896;11.424;2023-02-22T08:10:48;8.63;;;6.00;;
12888;SDS011;56848;49.896;11.424;2023-02-22T08:13:14;14.53;;;5.43;;
12888;SDS011;56848;49.896;11.424;2023-02-22T08:15:40;10.13;;;4.97;;
12888;SDS011;56848;49.896;11.424;2023-02-22T08:18:09;8.50;;;4.93;;
12888;SDS011;56848;49.896;11.424;2023-02-22T08:20:36;8.03;;;4.90;;
12888;SDS011;56848;49.896;11.424;2023-02-22T08:23:03;6.30;;;4.37;;
12888;SDS011;56848;49.896;11.424;2023-02-22T08:25:29;6.73;;;4.87;;
12888;SDS011;56848;49.896;11.424;2023-02-22T08:27:56;8.17;;;5.03;;
12888;SDS011;56848;49.896;11.424;2023-02-22T08:30:25;9.97;;;5.23;;
12888;SDS011;56848;49.896;11.424;2023-02-22T08:32:51;9.40;;;5.90;;
12888;SDS011;56848;49.896;11.424;2023-02-22T08:35:18;10.87;;;6.50;;
12888;SDS011;56848;49.896;11.424;2023-02-22T08:37:46;10.70;;;6.20;;
12888;SDS011;56848;49.896;11.424;2023-02-22T08:40:15;10.37;;;5.80;;
12888;SDS011;56848;49.896;11.424;2023-02-22T08:42:42;8.40;;;6.53;;
12888;SDS011;56848;49.896;11.424;2023-02-22T08:45:08;9.30;;;6.83;;
12888;SDS011;56848;49.896;11.424;2023-02-22T08:47:34;8.07;;;5.60;;
12888;SDS011;56848;49.896;11.424;2023-02-22T08:50:00;8.13;;;6.10;;
12888;SDS011;56848;49.896;11.424;2023-02-22T08:52:25;8.20;;;6.20;;
12888;SDS011;56848;49.896;11.424;2023-02-22T08:54:51;16.57;;;6.47;;
12888;SDS011;56848;49.896;11.424;2023-02-22T08:57:17;11.40;;;6.90;;
12888;SDS011;56848;49.896;11.424;2023-02-22T08:59:42;10.73;;;6.50;;
12888;SDS011;56848;49.896;11.424;2023-02-22T09:02:15;10.47;;;6.87;;
12888;SDS011;56848;49.896;11.424;2023-02-22T09:04:44;7.57;;;5.70;;
12888;SDS011;56848;49.896;11.424;2023-02-22T09:07:10;11.93;;;6.47;;
12888;SDS011;56848;49.896;11.424;2023-02-22T09:09:36;15.30;;;6.93;;
12888;SDS011;56848;49.896;11.424;2023-02-22T09:12:02;11.87;;;6.77;;
12888;SDS011;56848;49.896;11.424;2023-02-22T09:14:27;13.10;;;7.93;;
12888;SDS011;56848;49.896;11.424;2023-02-22T09:16:53;14.47;;;9.27;;
12888;SDS011;56848;49.896;11.424;2023-02-22T09:19:19;14.37;;;7.80;;
12888;SDS011;56848;49.896;11.424;2023-02-22T09:21:44;8.67;;;6.90;;
12888;SDS011;56848;49.896;11.424;2023-02-22T09:24:15;14.03;;;7.60;;
12888;SDS011;56848;49.896;11.424;2023-02-22T09:26:44;11.07;;;8.17;;
12888;SDS011;56848;49.896;11.424;2023-02-22T09:29:11;11.47;;;7.40;;
12888;SDS011;56848;49.896;11.424;2023-02-22T09:31:38;17.53;;;9.70;;
12888;SDS011;56848;49.896;11.424;2023-02-22T09:34:04;12.63;;;8.27;;
12888;SDS011;56848;49.896;11.424;2023-02-22T09:36:37;20.23;;;12.80;;
12888;SDS011;56848;49.896;11.424;2023-02-22T09:39:06;13.53;;;7.37;;
12888;SDS011;56848;49.896;11.424;2023-02-22T09:44:21;10.90;;;7.53;;
12888;SDS011;56848;49.896;11.424;2023-02-22T09:46:59;10.60;;;7.60;;
12888;SDS011;56848;49.896;11.424;2023-02-22T09:49:27;10.90;;;7.60;;
12888;SDS011;56848;49.896;11.424;2023-02-22T09:52:07;11.70;;;8.13;;
12888;SDS011;56848;49.896;11.424;2023-02-22T09:54:47;10.17;;;7.47;;
12888;SDS011;56848;49.896;11.424;2023-02-22T09:57:17;12.07;;;7.57;;
12888;SDS011;56848;49.896;11.424;2023-02-22T10:00:00;14.13;;;7.87;;
12888;SDS011;56848;49.896;11.424;2023-02-22T10:02:37;12.00;;;7.23;;
12888;SDS011;56848;49.896;11.424;2023-02-22T10:05:18;12.97;;;7.77;;
12888;SDS011;56848;49.896;11.424;2023-02-22T10:07:53;10.57;;;7.00;;
12888;SDS011;56848;49.896;11.424;2023-02-22T10:10:25;9.63;;;7.50;;
12888;SDS011;56848;49.896;11.424;2023-02-22T10:13:16;13.07;;;8.50;;
12888;SDS011;56848;49.896;11.424;2023-02-22T10:16:35;10.53;;;7.17;;
12888;SDS011;56848;49.896;11.424;2023-02-22T10:27:17;7.60;;;5.50;;
12888;SDS011;56848;49.896;11.424;2023-02-22T10:29:56;9.13;;;5.93;;
12888;SDS011;56848;49.896;11.424;2023-02-22T10:32:42;8.50;;;6.40;;
12888;SDS011;56848;49.896;11.424;2023-02-22T10:35:23;7.30;;;5.90;;
12888;SDS011;56848;49.896;11.424;2023-02-22T10:37:55;8.27;;;5.47;;
12888;SDS011;56848;49.896;11.424;2023-02-22T10:40:24;7.57;;;5.30;;
12888;SDS011;56848;49.896;11.424;2023-02-22T10:43:06;17.03;;;4.97;;
12888;SDS011;56848;49.896;11.424;2023-02-22T10:45:33;5.37;;;3.93;;
12888;SDS011;56848;49.896;11.424;2023-02-22T10:48:03;4.60;;;4.03;;
12888;SDS011;56848;49.896;11.424;2023-02-22T10:50:32;6.73;;;3.60;;
12888;SDS011;56848;49.896;11.424;2023-02-22T10:52:59;6.30;;;4.43;;
12888;SDS011;56848;49.896;11.424;2023-02-22T10:55:25;4.23;;;3.87;;
12888;SDS011;56848;49.896;11.424;2023-02-22T10:57:51;5.27;;;4.07;;
12888;SDS011;56848;49.896;11.424;2023-02-22T11:00:29;6.00;;;4.00;;
12888;SDS011;56848;49.896;11.424;2023-02-22T11:03:02;7.23;;;3.90;;
12888;SDS011;56848;49.896;11.424;2023-02-22T11:05:30;6.87;;;3.43;;
12888;SDS011;56848;49.896;11.424;2023-02-22T11:08:14;4.80;;;3.83;;
12888;SDS011;56848;49.896;11.424;2023-02-22T11:10:43;6.60;;;4.20;;
12888;SDS011;56848;49.896;11.424;2023-02-22T11:13:23;8.53;;;4.10;;
12888;SDS011;56848;49.896;11.424;2023-02-22T11:15:50;3.37;;;3.07;;
12888;SDS011;56848;49.896;11.424;2023-02-22T11:18:27;5.13;;;4.47;;
12888;SDS011;56848;49.896;11.424;2023-02-22T11:20:58;6.40;;;3.50;;
12888;SDS011;56848;49.896;11.424;2023-02-22T11:23:25;4.73;;;3.63;;
12888;SDS011;56848;49.896;11.424;2023-02-22T11:26:00;4.00;;;3.10;;
12888;SDS011;56848;49.896;11.424;2023-02-22T11:28:33;5.13;;;3.70;;
12888;SDS011;56848;49.896;11.424;2023-02-22T11:31:08;9.87;;;3.70;;
12888;SDS011;56848;49.896;11.424;2023-02-22T11:33:44;3.77;;;3.17;;
12888;SDS011;56848;49.896;11.424;2023-02-22T11:36:28;4.47;;;3.30;;
12888;SDS011;56848;49.896;11.424;2023-02-22T11:38:57;3.50;;;3.20;;
12888;SDS011;56848;49.896;11.424;2023-02-22T11:41:28;5.13;;;3.30;;
12888;SDS011;56848;49.896;11.424;2023-02-22T11:44:31;4.77;;;3.40;;
12888;SDS011;56848;49.896;11.424;2023-02-22T11:46:55;3.13;;;2.90;;
12888;SDS011;56848;49.896;11.424;2023-02-22T11:49:31;3.00;;;2.70;;
12888;SDS011;56848;49.896;11.424;2023-02-22T11:52:18;3.67;;;2.83;;
12888;SDS011;56848;49.896;11.424;2023-02-22T11:55:04;7.10;;;3.27;;
12888;SDS011;56848;49.896;11.424;2023-02-22T12:00:48;4.17;;;3.23;;
12888;SDS011;56848;49.896;11.424;2023-02-22T12:17:39;4.13;;;2.93;;
12888;SDS011;56848;49.896;11.424;2023-02-22T12:20:27;4.33;;;2.57;;
12888;SDS011;56848;49.896;11.424;2023-02-22T12:23:24;4.10;;;2.93;;
12888;SDS011;56848;49.896;11.424;2023-02-22T12:26:10;4.97;;;2.87;;
12888;SDS011;56848;49.896;11.424;2023-02-22T12:28:41;3.23;;;2.50;;
12888;SDS011;56848;49.896;11.424;2023-02-22T12:31:14;3.10;;;2.80;;
12888;SDS011;56848;49.896;11.424;2023-02-22T12:36:42;5.10;;;3.20;;
12888;SDS011;56848;49.896;11.424;2023-02-22T12:41:53;3.73;;;2.90;;
12888;SDS011;56848;49.896;11.424;2023-02-22T12:44:23;4.60;;;2.80;;
12888;SDS011;56848;49.896;11.424;2023-02-22T12:46:54;4.00;;;3.07;;
12888;SDS011;56848;49.896;11.424;2023-02-22T12:49:42;4.60;;;2.70;;
12888;SDS011;56848;49.896;11.424;2023-02-22T12:52:18;5.20;;;2.73;;
12888;SDS011;56848;49.896;11.424;2023-02-22T12:58:08;7.43;;;2.90;;
12888;SDS011;56848;49.896;11.424;2023-02-22T13:03:43;3.77;;;3.33;;
12888;SDS011;56848;49.896;11.424;2023-02-22T13:06:13;5.70;;;2.70;;
12888;SDS011;56848;49.896;11.424;2023-02-22T13:09:06;3.90;;;2.90;;
12888;SDS011;56848;49.896;11.424;2023-02-22T13:19:32;4.90;;;2.50;;
12888;SDS011;56848;49.896;11.424;2023-02-22T13:22:36;3.00;;;2.70;;
12888;SDS011;56848;49.896;11.424;2023-02-22T13:25:13;2.60;;;2.40;;
12888;SDS011;56848;49.896;11.424;2023-02-22T13:27:49;2.77;;;2.30;;
12888;SDS011;56848;49.896;11.424;2023-02-22T13:30:27;5.40;;;3.33;;
12888;SDS011;56848;49.896;11.424;2023-02-22T13:33:15;3.80;;;2.77;;
12888;SDS011;56848;49.896;11.424;2023-02-22T13:36:14;4.63;;;3.10;;
12888;SDS011;56848;49.896;11.424;2023-02-22T13:52:38;5.43;;;2.57;;
12888;SDS011;56848;49.896;11.424;2023-02-22T13:55:07;5.13;;;2.70;;
12888;SDS011;56848;49.896;11.424;2023-02-22T13:57:44;5.00;;;2.67;;
12888;SDS011;56848;49.896;11.424;2023-02-22T14:13:17;4.10;;;2.70;;
12888;SDS011;56848;49.896;11.424;2023-02-22T14:18:24;4.80;;;2.30;;
12888;SDS011;56848;49.896;11.424;2023-02-22T14:26:15;2.70;;;2.50;;
12888;SDS011;56848;49.896;11.424;2023-02-22T14:28:51;4.33;;;2.60;;
12888;SDS011;56848;49.896;11.424;2023-02-22T14:31:26;2.90;;;2.60;;
12888;SDS011;56848;49.896;11.424;2023-02-22T14:34:01;2.00;;;1.87;;
12888;SDS011;56848;49.896;11.424;2023-02-22T14:36:32;5.07;;;2.63;;
12888;SDS011;56848;49.896;11.424;2023-02-22T14:45:03;2.77;;;2.50;;
12888;SDS011;56848;49.896;11.424;2023-02-22T14:50:11;4.03;;;2.57;;
12888;SDS011;56848;49.896;11.424;2023-02-22T14:52:48;4.60;;;3.13;;
12888;SDS011;56848;49.896;11.424;2023-02-22T14:55:25;2.43;;;2.20;;
12888;SDS011;56848;49.896;11.424;2023-02-22T14:57:58;3.10;;;2.80;;
12888;SDS011;56848;49.896;11.424;2023-02-22T15:00:37;3.93;;;2.77;;
12888;SDS011;56848;49.896;11.424;2023-02-22T15:03:10;3.50;;;2.30;;
12888;SDS011;56848;49.896;11.424;2023-02-22T15:05:51;4.30;;;2.93;;
12888;SDS011;56848;49.896;11.424;2023-02-22T15:08:17;3.03;;;2.73;;
12888;SDS011;56848;49.896;11.424;2023-02-22T15:10:52;2.57;;;2.37;;
12888;SDS011;56848;49.896;11.424;2023-02-22T15:13:24;2.30;;;1.90;;
12888;SDS011;56848;49.896;11.424;2023-02-22T15:18:26;3.23;;;2.40;;
12888;SDS011;56848;49.896;11.424;2023-02-22T15:21:11;2.73;;;2.53;;
12888;SDS011;56848;49.896;11.424;2023-02-22T15:26:33;18.20;;;6.90;;
12888;SDS011;56848;49.896;11.424;2023-02-22T15:29:13;10.40;;;3.90;;
12888;SDS011;56848;49.896;11.424;2023-02-22T15:31:40;5.00;;;3.37;;
12888;SDS011;56848;49.896;11.424;2023-02-22T15:36:39;5.53;;;2.70;;
12888;SDS011;56848;49.896;11.424;2023-02-22T15:42:03;4.53;;;2.30;;
12888;SDS011;56848;49.896;11.424;2023-02-22T15:44:37;2.50;;;2.10;;
12888;SDS011;56848;49.896;11.424;2023-02-22T15:47:05;5.57;;;2.57;;
12888;SDS011;56848;49.896;11.424;2023-02-22T15:49:35;2.60;;;2.40;;
12888;SDS011;56848;49.896;11.424;2023-02-22T15:52:21;3.40;;;2.80;;
12888;SDS011;56848;49.896;11.424;2023-02-22T15:54:50;5.13;;;2.90;;
12888;SDS011;56848;49.896;11.424;2023-02-22T15:57:17;5.37;;;2.17;;
12888;SDS011;56848;49.896;11.424;2023-02-22T15:59:47;2.53;;;2.03;;
12888;SDS011;56848;49.896;11.424;2023-02-22T16:02:18;2.70;;;2.37;;
12888;SDS011;56848;49.896;11.424;2023-02-22T16:05:07;2.20;;;2.00;;
12888;SDS011;56848;49.896;11.424;2023-02-22T16:07:40;2.30;;;2.10;;
12888;SDS011;56848;49.896;11.424;2023-02-22T16:10:30;1.80;;;1.70;;
12888;SDS011;56848;49.896;11.424;2023-02-22T16:13:07;2.83;;;1.90;;
12888;SDS011;56848;49.896;11.424;2023-02-22T16:15:55;2.03;;;1.83;;
12888;SDS011;56848;49.896;11.424;2023-02-22T16:18:24;2.17;;;1.97;;
12888;SDS011;56848;49.896;11.424;2023-02-22T16:21:01;2.60;;;2.40;;
12888;SDS011;56848;49.896;11.424;2023-02-22T16:26:17;2.70;;;2.30;;
12888;SDS011;56848;49.896;11.424;2023-02-22T16:29:03;2.90;;;2.20;;
12888;SDS011;56848;49.896;11.424;2023-02-22T16:31:33;1.90;;;1.80;;
12888;SDS011;56848;49.896;11.424;2023-02-22T16:34:04;4.90;;;3.20;;
12888;SDS011;56848;49.896;11.424;2023-02-22T16:36:41;4.70;;;2.40;;
12888;SDS011;56848;49.896;11.424;2023-02-22T16:39:24;4.70;;;3.50;;
12888;SDS011;56848;49.896;11.424;2023-02-22T16:41:55;6.57;;;4.17;;
12888;SDS011;56848;49.896;11.424;2023-02-22T16:44:23;5.30;;;3.93;;
12888;SDS011;56848;49.896;11.424;2023-02-22T16:46:52;11.00;;;6.10;;
12888;SDS011;56848;49.896;11.424;2023-02-22T16:49:20;15.60;;;7.03;;
12888;SDS011;56848;49.896;11.424;2023-02-22T16:51:48;16.70;;;7.63;;
12888;SDS011;56848;49.896;11.424;2023-02-22T16:54:28;17.47;;;7.50;;
12888;SDS011;56848;49.896;11.424;2023-02-22T16:56:58;10.40;;;6.00;;
12888;SDS011;56848;49.896;11.424;2023-02-22T16:59:26;18.03;;;6.03;;
12888;SDS011;56848;49.896;11.424;2023-02-22T17:01:54;12.57;;;6.00;;
12888;SDS011;56848;49.896;11.424;2023-02-22T17:04:22;14.43;;;6.67;;
12888;SDS011;56848;49.896;11.424;2023-02-22T17:06:49;11.27;;;6.30;;
12888;SDS011;56848;49.896;11.424;2023-02-22T17:09:15;7.10;;;4.67;;
12888;SDS011;56848;49.896;11.424;2023-02-22T17:11:43;5.90;;;4.03;;
12888;SDS011;56848;49.896;11.424;2023-02-22T17:14:15;12.87;;;5.00;;
12888;SDS011;56848;49.896;11.424;2023-02-22T17:16:50;4.57;;;4.10;;
12888;SDS011;56848;49.896;11.424;2023-02-22T17:19:20;5.70;;;4.60;;
12888;SDS011;56848;49.896;11.424;2023-02-22T17:21:47;6.47;;;4.17;;
12888;SDS011;56848;49.896;11.424;2023-02-22T17:24:15;7.97;;;3.97;;
12888;SDS011;56848;49.896;11.424;2023-02-22T17:26:42;6.03;;;3.57;;
12888;SDS011;56848;49.896;11.424;2023-02-22T17:29:08;5.93;;;3.67;;
12888;SDS011;56848;49.896;11.424;2023-02-22T17:31:33;4.30;;;3.13;;
12888;SDS011;56848;49.896;11.424;2023-02-22T17:34:00;7.90;;;3.70;;
12888;SDS011;56848;49.896;11.424;2023-02-22T17:36:27;3.70;;;3.20;;
12888;SDS011;56848;49.896;11.424;2023-02-22T17:38:54;3.97;;;3.23;;
12888;SDS011;56848;49.896;11.424;2023-02-22T17:41:19;3.60;;;3.30;;
12888;SDS011;56848;49.896;11.424;2023-02-22T17:43:45;167.40;;;9.73;;
12888;SDS011;56848;49.896;11.424;2023-02-22T17:46:11;4.40;;;3.07;;
12888;SDS011;56848;49.896;11.424;2023-02-22T17:48:36;4.30;;;2.90;;
12888;SDS011;56848;49.896;11.424;2023-02-22T17:51:06;6.60;;;3.60;;
12888;SDS011;56848;49.896;11.424;2023-02-22T17:53:34;4.70;;;3.40;;
12888;SDS011;56848;49.896;11.424;2023-02-22T17:56:18;4.40;;;3.73;;
12888;SDS011;56848;49.896;11.424;2023-02-22T17:58:45;6.10;;;4.47;;
12888;SDS011;56848;49.896;11.424;2023-02-22T18:01:26;6.97;;;4.70;;
12888;SDS011;56848;49.896;11.424;2023-02-22T18:03:54;6.00;;;4.17;;
12888;SDS011;56848;49.896;11.424;2023-02-22T18:06:23;11.43;;;5.03;;
12888;SDS011;56848;49.896;11.424;2023-02-22T18:08:51;7.20;;;5.60;;
12888;SDS011;56848;49.896;11.424;2023-02-22T18:11:17;9.10;;;5.53;;
12888;SDS011;56848;49.896;11.424;2023-02-22T18:13:44;7.17;;;4.60;;
12888;SDS011;56848;49.896;11.424;2023-02-22T18:16:11;10.67;;;4.90;;
12888;SDS011;56848;49.896;11.424;2023-02-22T18:18:37;12.20;;;4.37;;
12888;SDS011;56848;49.896;11.424;2023-02-22T18:21:03;11.43;;;5.30;;
12888;SDS011;56848;49.896;11.424;2023-02-22T18:23:31;8.50;;;4.53;;
12888;SDS011;56848;49.896;11.424;2023-02-22T18:25:58;7.37;;;4.50;;
12888;SDS011;56848;49.896;11.424;2023-02-22T18:28:25;10.07;;;4.43;;
12888;SDS011;56848;49.896;11.424;2023-02-22T18:30:51;7.30;;;3.93;;
12888;SDS011;56848;49.896;11.424;2023-02-22T18:33:16;5.80;;;4.30;;
12888;SDS011;56848;49.896;11.424;2023-02-22T18:35:45;9.50;;;4.97;;
12888;SDS011;56848;49.896;11.424;2023-02-22T18:38:16;8.13;;;4.23;;
12888;SDS011;56848;49.896;11.424;2023-02-22T18:41:07;5.87;;;4.37;;
12888;SDS011;56848;49.896;11.424;2023-02-22T18:43:37;6.33;;;4.20;;
12888;SDS011;56848;49.896;11.424;2023-02-22T18:46:07;8.27;;;4.37;;
12888;SDS011;56848;49.896;11.424;2023-02-22T18:48:41;4.60;;;4.13;;
12888;SDS011;56848;49.896;11.424;2023-02-22T18:51:07;5.20;;;3.43;;
12888;SDS011;56848;49.896;11.424;2023-02-22T18:53:35;6.73;;;4.50;;
12888;SDS011;56848;49.896;11.424;2023-02-22T18:56:02;5.03;;;4.37;;
12888;SDS011;56848;49.896;11.424;2023-02-22T18:58:29;5.50;;;4.00;;
12888;SDS011;56848;49.896;11.424;2023-02-22T19:00:57;10.23;;;4.10;;
12888;SDS011;56848;49.896;11.424;2023-02-22T19:03:24;5.93;;;3.97;;
12888;SDS011;56848;49.896;11.424;2023-02-22T19:05:50;11.00;;;5.10;;
12888;SDS011;56848;49.896;11.424;2023-02-22T19:08:15;6.60;;;4.90;;
12888;SDS011;56848;49.896;11.424;2023-02-22T19:10:41;9.87;;;6.17;;
12888;SDS011;56848;49.896;11.424;2023-02-22T19:13:07;13.67;;;6.83;;
12888;SDS011;56848;49.896;11.424;2023-02-22T19:15:35;9.90;;;5.17;;
12888;SDS011;56848;49.896;11.424;2023-02-22T19:18:01;9.30;;;5.77;;
12888;SDS011;56848;49.896;11.424;2023-02-22T19:20:27;8.83;;;6.17;;
12888;SDS011;56848;49.896;11.424;2023-02-22T19:22:57;12.07;;;7.00;;
12888;SDS011;56848;49.896;11.424;2023-02-22T19:25:23;10.93;;;7.23;;
12888;SDS011;56848;49.896;11.424;2023-02-22T19:27:49;12.43;;;6.33;;
12888;SDS011;56848;49.896;11.424;2023-02-22T19:30:14;9.70;;;6.23;;
12888;SDS011;56848;49.896;11.424;2023-02-22T19:32:41;11.30;;;6.90;;
12888;SDS011;56848;49.896;11.424;2023-02-22T19:35:11;13.00;;;7.80;;
12888;SDS011;56848;49.896;11.424;2023-02-22T19:37:50;9.60;;;6.67;;
12888;SDS011;56848;49.896;11.424;2023-02-22T19:40:17;11.83;;;7.40;;
12888;SDS011;56848;49.896;11.424;2023-02-22T19:42:46;19.23;;;9.57;;
12888;SDS011;56848;49.896;11.424;2023-02-22T19:45:12;22.83;;;10.50;;
12888;SDS011;56848;49.896;11.424;2023-02-22T19:47:38;16.00;;;10.30;;
12888;SDS011;56848;49.896;11.424;2023-02-22T19:50:05;24.43;;;11.67;;
12888;SDS011;56848;49.896;11.424;2023-02-22T19:52:31;15.83;;;8.30;;
12888;SDS011;56848;49.896;11.424;2023-02-22T19:54:57;23.53;;;7.57;;
12888;SDS011;56848;49.896;11.424;2023-02-22T19:57:22;8.83;;;5.50;;
12888;SDS011;56848;49.896;11.424;2023-02-22T19:59:48;14.80;;;5.60;;
12888;SDS011;56848;49.896;11.424;2023-02-22T20:02:14;5.80;;;5.00;;
12888;SDS011;56848;49.896;11.424;2023-02-22T20:04:40;10.03;;;5.90;;
12888;SDS011;56848;49.896;11.424;2023-02-22T20:07:05;10.10;;;6.37;;
12888;SDS011;56848;49.896;11.424;2023-02-22T20:09:31;11.50;;;6.00;;
12888;SDS011;56848;49.896;11.424;2023-02-22T20:12:03;10.30;;;5.40;;
12888;SDS011;56848;49.896;11.424;2023-02-22T20:14:29;9.70;;;5.40;;
12888;SDS011;56848;49.896;11.424;2023-02-22T20:16:56;7.93;;;5.10;;
12888;SDS011;56848;49.896;11.424;2023-02-22T20:19:22;7.00;;;5.33;;
12888;SDS011;56848;49.896;11.424;2023-02-22T20:21:50;8.40;;;5.73;;
12888;SDS011;56848;49.896;11.424;2023-02-22T20:24:16;6.40;;;5.00;;
12888;SDS011;56848;49.896;11.424;2023-02-22T20:26:45;7.50;;;5.93;;
12888;SDS011;56848;49.896;11.424;2023-02-22T20:29:11;5.53;;;4.70;;
12888;SDS011;56848;49.896;11.424;2023-02-22T20:31:37;8.73;;;4.90;;
12888;SDS011;56848;49.896;11.424;2023-02-22T20:34:06;11.70;;;3.87;;
12888;SDS011;56848;49.896;11.424;2023-02-22T20:36:34;12.40;;;5.47;;
12888;SDS011;56848;49.896;11.424;2023-02-22T20:39:02;10.00;;;6.00;;
12888;SDS011;56848;49.896;11.424;2023-02-22T20:41:31;6.27;;;5.20;;
12888;SDS011;56848;49.896;11.424;2023-02-22T20:43:59;9.70;;;5.80;;
12888;SDS011;56848;49.896;11.424;2023-02-22T20:46:27;7.70;;;5.17;;
12888;SDS011;56848;49.896;11.424;2023-02-22T20:48:58;6.43;;;4.80;;
12888;SDS011;56848;49.896;11.424;2023-02-22T20:51:25;7.57;;;4.93;;
12888;SDS011;56848;49.896;11.424;2023-02-22T20:53:52;8.67;;;6.03;;
12888;SDS011;56848;49.896;11.424;2023-02-22T20:56:19;8.00;;;4.83;;
12888;SDS011;56848;49.896;11.424;2023-02-22T20:58:46;7.40;;;5.20;;
12888;SDS011;56848;49.896;11.424;2023-02-22T21:01:13;12.60;;;6.00;;
12888;SDS011;56848;49.896;11.424;2023-02-22T21:03:46;8.80;;;6.40;;
12888;SDS011;56848;49.896;11.424;2023-02-22T21:06:14;8.53;;;5.50;;
12888;SDS011;56848;49.896;11.424;2023-02-22T21:08:44;7.43;;;5.47;;
12888;SDS011;56848;49.896;11.424;2023-02-22T21:11:15;7.10;;;5.70;;
12888;SDS011;56848;49.896;11.424;2023-02-22T21:13:42;10.57;;;6.57;;
